Faxinalzinho, Brazil
Current Conditions -  °F | °C
As of 6:00 PM on Monday 20 Oct 2014 (Local Time) from SBCH Reporting Station
Clear Clear  
Wind Chill: 75°   Ceiling: Unl
Heat Index: 75°   Visibility: 6mi
Dew Point: 59°   Wind: 5mph
Humidity: 57%   Direction: 150°SSE
Pressure: 30.06"   Gusts: NA
Location:  27.42°S, 52.67°W
Report Text: SBCH 202100Z 15004KT CAVOK 24/15 Q1018
Loading
Personal Weather Stations






























Interactive Weather Map
Tropical Storm Tracking
New forecast layout! Learn more

10-Day Weather Forecast

Advertisements
Track Severe Weather on mobile